Time;durP1;ratioP1;P1;durP2;ratioP2;P2;SDS_P1;SDS_P2;PMS_P1;PMS_P2;Temp;Humidity;BMP_temperature;BMP_pressure;BME280_temperature;BME280_humidity;BME280_pressure;Samples;Min_cycle;Max_cycle;Signal;HPM_P1;HPM_P2
2023/07/04 00:01:26;;;;;;;8.32;2.42;;;;;;;;;;5056067;28;20040;-71
2023/07/04 00:03:53;;;;;;;7.55;2.45;;;;;;;;;;5070981;28;20032;-72
2023/07/04 00:06:20;;;;;;;9.10;2.88;;;;;;;;;;5070685;28;20090;-73
2023/07/04 00:08:48;;;;;;;11.35;3.00;;;;;;;;;;5070965;28;20510;-72
2023/07/04 00:11:14;;;;;;;9.45;2.22;;;;;;;;;;5071119;28;20058;-72
2023/07/04 00:13:40;;;;;;;11.45;3.03;;;;;;;;;;5070765;28;20108;-74
2023/07/04 00:16:08;;;;;;;11.13;2.90;;;;;;;;;;5070341;28;20534;-72
2023/07/04 00:18:36;;;;;;;9.65;2.78;;;;;;;;;;5070942;28;20045;-72
2023/07/04 00:21:03;;;;;;;8.88;2.53;;;;;;;;;;5070678;28;20052;-73
2023/07/04 00:23:31;;;;;;;8.98;2.63;;;;;;;;;;5068913;28;20029;-73
2023/07/04 00:25:58;;;;;;;12.45;2.90;;;;;;;;;;5069704;28;20103;-74
2023/07/04 00:28:25;;;;;;;11.27;2.80;;;;;;;;;;5070613;28;20039;-74
2023/07/04 00:30:52;;;;;;;23.05;3.22;;;;;;;;;;5069985;28;20440;-75
2023/07/04 00:33:20;;;;;;;10.98;2.90;;;;;;;;;;5070636;28;20021;-74
2023/07/04 00:35:46;;;;;;;15.27;3.30;;;;;;;;;;5070335;28;20149;-72
2023/07/04 00:38:13;;;;;;;9.27;2.97;;;;;;;;;;5070528;28;20051;-73
2023/07/04 00:40:39;;;;;;;13.93;3.10;;;;;;;;;;5071195;28;20035;-74
2023/07/04 00:43:06;;;;;;;7.70;2.22;;;;;;;;;;5070690;28;20029;-73
2023/07/04 00:45:35;;;;;;;8.35;2.40;;;;;;;;;;5070363;28;20056;-74
2023/07/04 00:48:03;;;;;;;13.27;3.30;;;;;;;;;;5070328;28;20062;-73
2023/07/04 00:50:35;;;;;;;9.82;2.83;;;;;;;;;;5070212;28;20021;-74
2023/07/04 00:53:04;;;;;;;7.00;2.25;;;;;;;;;;5069840;28;20025;-73
2023/07/04 00:55:32;;;;;;;10.73;2.30;;;;;;;;;;5069957;28;20343;-74
2023/07/04 00:57:58;;;;;;;6.90;2.60;;;;;;;;;;5069146;28;20064;-73
2023/07/04 01:00:25;;;;;;;8.75;2.78;;;;;;;;;;5070538;28;20046;-74
2023/07/04 01:02:59;;;;;;;10.05;2.85;;;;;;;;;;5065148;28;20021;-72
2023/07/04 01:05:46;;;;;;;9.43;2.78;;;;;;;;;;5050121;28;20347;-74
2023/07/04 01:08:18;;;;;;;8.30;2.75;;;;;;;;;;5068467;28;20043;-73
2023/07/04 01:10:45;;;;;;;10.63;2.90;;;;;;;;;;5069611;28;20020;-75
2023/07/04 01:13:33;;;;;;;10.07;2.80;;;;;;;;;;5070011;28;20544;-74
2023/07/04 01:16:00;;;;;;;10.02;3.15;;;;;;;;;;5069353;28;20803;-74
2023/07/04 01:18:26;;;;;;;10.60;3.35;;;;;;;;;;5069425;28;20040;-77
2023/07/04 01:20:53;;;;;;;11.98;3.60;;;;;;;;;;5069258;28;20040;-72
2023/07/04 01:23:25;;;;;;;11.57;3.42;;;;;;;;;;5069467;28;20033;-73
2023/07/04 01:25:56;;;;;;;11.93;3.70;;;;;;;;;;5069831;28;20777;-73
2023/07/04 01:28:24;;;;;;;14.15;4.13;;;;;;;;;;5069937;28;20035;-73
2023/07/04 01:30:51;;;;;;;15.30;3.75;;;;;;;;;;5069793;28;20021;-73
2023/07/04 01:33:20;;;;;;;12.68;3.60;;;;;;;;;;5068810;28;20039;-72
2023/07/04 01:35:46;;;;;;;13.88;4.05;;;;;;;;;;5067857;28;20111;-73
2023/07/04 01:38:12;;;;;;;15.70;4.03;;;;;;;;;;5069054;28;20041;-73
2023/07/04 01:40:38;;;;;;;16.10;3.70;;;;;;;;;;5069276;28;20653;-71
2023/07/04 01:43:05;;;;;;;12.32;3.63;;;;;;;;;;5069003;28;20032;-72
2023/07/04 01:45:31;;;;;;;14.40;4.93;;;;;;;;;;5069120;28;20429;-72
2023/07/04 01:47:58;;;;;;;12.35;4.53;;;;;;;;;;5068974;28;20020;-72
2023/07/04 01:50:24;;;;;;;13.88;3.95;;;;;;;;;;5068831;28;20028;-73
2023/07/04 01:52:50;;;;;;;12.68;4.00;;;;;;;;;;5068822;28;20029;-72
2023/07/04 01:55:16;;;;;;;13.23;3.75;;;;;;;;;;5068539;28;20540;-73
2023/07/04 01:57:42;;;;;;;16.20;5.03;;;;;;;;;;5069022;28;20086;-73
2023/07/04 02:00:09;;;;;;;18.33;4.68;;;;;;;;;;5068585;28;20039;-74
2023/07/04 02:02:37;;;;;;;15.32;4.72;;;;;;;;;;5068726;28;20021;-72
2023/07/04 02:05:03;;;;;;;13.98;4.82;;;;;;;;;;5068788;28;20047;-72
2023/07/04 02:07:29;;;;;;;15.20;4.47;;;;;;;;;;5068868;28;20400;-72
2023/07/04 02:09:55;;;;;;;18.38;5.45;;;;;;;;;;5069213;28;20028;-72
2023/07/04 02:12:21;;;;;;;16.95;5.30;;;;;;;;;;5068918;28;20395;-73
2023/07/04 02:14:49;;;;;;;18.58;5.63;;;;;;;;;;5068507;28;20029;-73
2023/07/04 02:17:15;;;;;;;17.90;5.82;;;;;;;;;;5068879;28;20043;-72
2023/07/04 02:19:41;;;;;;;14.25;5.53;;;;;;;;;;5066254;28;20029;-72
2023/07/04 02:22:07;;;;;;;17.30;5.43;;;;;;;;;;5056157;28;20082;-72
2023/07/04 02:24:33;;;;;;;21.30;5.95;;;;;;;;;;5067977;28;20041;-73
2023/07/04 02:26:59;;;;;;;19.13;6.05;;;;;;;;;;5057434;28;20028;-73
2023/07/04 02:29:26;;;;;;;14.85;6.50;;;;;;;;;;5065223;28;20029;-74
2023/07/04 02:31:52;;;;;;;20.33;5.57;;;;;;;;;;5061460;28;20416;-72
2023/07/04 02:34:18;;;;;;;17.52;5.35;;;;;;;;;;5068805;28;20036;-72
2023/07/04 02:36:44;;;;;;;17.75;5.70;;;;;;;;;;5068722;28;20020;-73
2023/07/04 02:39:10;;;;;;;15.70;5.57;;;;;;;;;;5067910;28;20041;-72
2023/07/04 02:41:36;;;;;;;16.55;5.68;;;;;;;;;;5067013;28;20029;-73
2023/07/04 02:44:02;;;;;;;15.65;5.43;;;;;;;;;;5068535;28;20528;-74
2023/07/04 02:46:28;;;;;;;17.95;5.55;;;;;;;;;;5068805;28;20498;-72
2023/07/04 02:48:54;;;;;;;17.42;5.00;;;;;;;;;;5067843;28;20029;-73
2023/07/04 02:51:20;;;;;;;12.77;4.38;;;;;;;;;;5068105;28;20030;-72
2023/07/04 02:53:46;;;;;;;17.23;5.82;;;;;;;;;;5050371;28;20031;-73
2023/07/04 02:56:12;;;;;;;14.30;4.65;;;;;;;;;;5068036;28;20025;-72
2023/07/04 02:58:38;;;;;;;15.65;4.45;;;;;;;;;;5067712;28;20048;-73
2023/07/04 03:01:04;;;;;;;16.15;5.47;;;;;;;;;;5067970;28;20035;-73
2023/07/04 03:03:31;;;;;;;20.35;5.80;;;;;;;;;;5068448;28;20042;-73
2023/07/04 03:05:58;;;;;;;9.57;4.35;;;;;;;;;;5068504;28;20030;-73
2023/07/04 03:08:24;;;;;;;11.27;4.40;;;;;;;;;;5068292;28;20021;-73
2023/07/04 03:10:50;;;;;;;11.80;4.20;;;;;;;;;;5067899;28;20441;-73
2023/07/04 03:13:16;;;;;;;12.80;4.47;;;;;;;;;;5068735;28;20484;-72
2023/07/04 03:15:42;;;;;;;18.83;5.68;;;;;;;;;;5068161;28;20529;-73
2023/07/04 03:18:09;;;;;;;13.60;4.65;;;;;;;;;;5068007;28;20029;-72
2023/07/04 03:20:35;;;;;;;12.10;4.97;;;;;;;;;;5067886;28;20032;-73
2023/07/04 03:23:01;;;;;;;13.85;4.45;;;;;;;;;;5068350;28;20090;-73
2023/07/04 03:25:27;;;;;;;18.38;4.35;;;;;;;;;;5069132;28;20049;-72
2023/07/04 03:27:53;;;;;;;10.88;3.72;;;;;;;;;;5071233;28;20501;-72
2023/07/04 03:30:19;;;;;;;10.68;4.35;;;;;;;;;;5071390;28;20059;-72
2023/07/04 03:32:45;;;;;;;15.23;4.05;;;;;;;;;;5071253;28;20044;-72
2023/07/04 03:35:11;;;;;;;16.52;4.57;;;;;;;;;;5071931;28;20099;-72
2023/07/04 03:37:37;;;;;;;17.75;6.10;;;;;;;;;;5071285;28;20032;-73
2023/07/04 03:40:07;;;;;;;16.52;5.13;;;;;;;;;;5057027;28;20040;-73
2023/07/04 03:42:34;;;;;;;10.25;4.47;;;;;;;;;;5071187;28;20032;-73
2023/07/04 03:45:00;;;;;;;8.60;3.90;;;;;;;;;;5058843;28;20032;-73
2023/07/04 03:47:26;;;;;;;19.13;5.18;;;;;;;;;;5069226;28;20482;-73
2023/07/04 03:49:52;;;;;;;12.60;4.53;;;;;;;;;;5052852;28;20028;-74
2023/07/04 03:52:18;;;;;;;10.95;4.40;;;;;;;;;;5071022;28;20503;-73
2023/07/04 03:54:44;;;;;;;20.65;4.65;;;;;;;;;;5070912;28;20029;-72
2023/07/04 03:57:10;;;;;;;13.38;4.60;;;;;;;;;;5070991;28;20029;-73
2023/07/04 03:59:36;;;;;;;12.70;5.63;;;;;;;;;;5071708;28;20478;-73
2023/07/04 04:02:02;;;;;;;13.07;5.00;;;;;;;;;;5071377;28;20044;-73
2023/07/04 04:04:28;;;;;;;19.08;4.85;;;;;;;;;;5069857;28;20055;-72
2023/07/04 04:06:58;;;;;;;15.32;5.03;;;;;;;;;;5071054;28;20130;-74
2023/07/04 04:09:24;;;;;;;11.95;4.20;;;;;;;;;;5070963;28;20038;-73
2023/07/04 04:11:51;;;;;;;13.13;4.60;;;;;;;;;;5070722;28;20104;-72
2023/07/04 04:14:17;;;;;;;11.55;4.80;;;;;;;;;;5070651;28;20022;-72
2023/07/04 04:16:43;;;;;;;15.73;5.03;;;;;;;;;;5070408;28;20393;-73
2023/07/04 04:19:09;;;;;;;13.35;4.78;;;;;;;;;;5060525;28;20044;-73
2023/07/04 04:21:35;;;;;;;14.98;4.88;;;;;;;;;;5070446;28;20474;-73
2023/07/04 04:24:01;;;;;;;16.88;5.03;;;;;;;;;;5070088;28;20052;-74
2023/07/04 04:26:32;;;;;;;13.35;4.63;;;;;;;;;;5070335;28;20096;-73
2023/07/04 04:28:58;;;;;;;16.27;5.55;;;;;;;;;;5069809;28;20028;-72
2023/07/04 04:31:25;;;;;;;16.70;5.40;;;;;;;;;;5070236;28;20435;-72
2023/07/04 04:33:51;;;;;;;15.85;5.80;;;;;;;;;;5060341;28;20020;-72
2023/07/04 04:36:17;;;;;;;13.35;4.78;;;;;;;;;;5069802;28;20443;-72
2023/07/04 04:38:43;;;;;;;15.00;5.63;;;;;;;;;;5069596;28;20127;-73
2023/07/04 04:41:09;;;;;;;12.27;4.93;;;;;;;;;;5069344;28;20055;-72
2023/07/04 04:43:35;;;;;;;13.80;5.75;;;;;;;;;;5070340;28;20553;-73
2023/07/04 04:46:02;;;;;;;11.93;4.63;;;;;;;;;;5069919;28;20033;-72
2023/07/04 04:48:35;;;;;;;16.48;5.10;;;;;;;;;;5069867;28;20474;-73
2023/07/04 04:51:07;;;;;;;13.93;5.18;;;;;;;;;;5051623;28;20036;-73
2023/07/04 04:53:35;;;;;;;18.35;5.85;;;;;;;;;;5050955;28;20086;-71
2023/07/04 04:56:02;;;;;;;18.77;6.32;;;;;;;;;;5068846;28;20032;-73
2023/07/04 04:58:28;;;;;;;23.33;6.35;;;;;;;;;;5057655;28;20036;-73
2023/07/04 05:00:54;;;;;;;20.83;6.72;;;;;;;;;;5055535;28;20028;-72
2023/07/04 05:03:20;;;;;;;14.40;5.78;;;;;;;;;;5069960;28;20146;-72
2023/07/04 05:05:46;;;;;;;11.23;5.70;;;;;;;;;;5061182;28;20079;-73
2023/07/04 05:08:12;;;;;;;12.07;5.22;;;;;;;;;;5069752;28;20032;-72
2023/07/04 05:10:38;;;;;;;16.73;6.88;;;;;;;;;;5049685;28;20039;-73
2023/07/04 05:13:04;;;;;;;18.75;6.05;;;;;;;;;;5069652;28;20028;-73
2023/07/04 05:15:30;;;;;;;15.65;6.60;;;;;;;;;;5069745;28;20043;-73
2023/07/04 05:17:56;;;;;;;14.73;6.32;;;;;;;;;;5069589;28;20470;-73
2023/07/04 05:20:23;;;;;;;19.65;7.13;;;;;;;;;;5069680;28;20025;-73
2023/07/04 05:22:56;;;;;;;19.92;7.55;;;;;;;;;;5068733;28;20422;-73
2023/07/04 05:25:22;;;;;;;20.13;6.75;;;;;;;;;;5068814;28;20044;-73
2023/07/04 05:27:50;;;;;;;24.58;7.13;;;;;;;;;;5068847;28;20799;-73
2023/07/04 05:30:16;;;;;;;21.08;8.35;;;;;;;;;;5069816;28;20067;-73
2023/07/04 05:32:42;;;;;;;20.77;7.55;;;;;;;;;;5069306;28;20048;-73
2023/07/04 05:35:08;;;;;;;21.92;7.45;;;;;;;;;;5067001;28;20407;-73
2023/07/04 05:37:34;;;;;;;19.48;7.03;;;;;;;;;;5068705;28;20138;-73
2023/07/04 05:40:00;;;;;;;23.20;8.05;;;;;;;;;;5068688;28;20058;-73
2023/07/04 05:42:28;;;;;;;25.08;7.95;;;;;;;;;;5068148;28;20055;-72
2023/07/04 05:44:54;;;;;;;27.67;8.90;;;;;;;;;;5054083;28;20016;-73
2023/07/04 05:47:20;;;;;;;20.42;8.15;;;;;;;;;;5068713;28;20035;-73
2023/07/04 05:49:46;;;;;;;29.27;8.73;;;;;;;;;;5068696;28;20487;-74
2023/07/04 05:52:12;;;;;;;21.70;8.25;;;;;;;;;;5068924;28;20024;-73
2023/07/04 05:54:38;;;;;;;23.73;9.25;;;;;;;;;;5068521;28;20496;-74
2023/07/04 05:57:04;;;;;;;23.10;8.65;;;;;;;;;;5068799;28;20020;-73
2023/07/04 05:59:30;;;;;;;22.77;8.50;;;;;;;;;;5065121;28;20041;-74
2023/07/04 06:01:58;;;;;;;26.77;6.88;;;;;;;;;;5058310;28;20573;-74
2023/07/04 06:04:24;;;;;;;23.67;8.23;;;;;;;;;;5068010;28;20540;-75
2023/07/04 06:06:51;;;;;;;27.75;7.50;;;;;;;;;;5067787;28;20031;-74
2023/07/04 06:09:18;;;;;;;24.88;7.72;;;;;;;;;;5067236;28;20492;-74
2023/07/04 06:11:45;;;;;;;30.27;8.20;;;;;;;;;;5067257;28;20050;-73
2023/07/04 06:14:15;;;;;;;32.33;8.55;;;;;;;;;;5067029;28;20009;-72
2023/07/04 06:16:41;;;;;;;25.58;8.18;;;;;;;;;;5067161;28;20116;-73
2023/07/04 06:19:07;;;;;;;25.60;8.05;;;;;;;;;;5066332;28;20029;-73
2023/07/04 06:21:33;;;;;;;25.63;8.85;;;;;;;;;;5067578;28;20028;-73
2023/07/04 06:23:59;;;;;;;24.40;9.00;;;;;;;;;;5045938;28;20049;-73
2023/07/04 06:26:27;;;;;;;29.13;9.95;;;;;;;;;;5048387;28;20174;-73
2023/07/04 06:28:54;;;;;;;29.05;9.02;;;;;;;;;;5048199;28;20550;-72
2023/07/04 06:31:21;;;;;;;26.88;6.57;;;;;;;;;;5047143;28;20029;-72
2023/07/04 06:33:47;;;;;;;32.92;10.52;;;;;;;;;;5047845;28;20488;-73
2023/07/04 06:36:14;;;;;;;25.02;8.25;;;;;;;;;;5048570;28;20029;-73
2023/07/04 06:38:40;;;;;;;23.90;7.63;;;;;;;;;;5047965;28;20068;-72
2023/07/04 06:41:08;;;;;;;25.50;7.72;;;;;;;;;;5047748;28;20387;-72
2023/07/04 06:43:34;;;;;;;18.35;6.32;;;;;;;;;;5048418;28;20043;-72
2023/07/04 06:46:01;;;;;;;33.35;8.52;;;;;;;;;;5047814;28;20103;-72
2023/07/04 06:48:28;;;;;;;22.70;7.63;;;;;;;;;;5047543;28;20061;-72
2023/07/04 06:51:01;;;;;;;25.45;8.05;;;;;;;;;;5047936;28;20018;-73
2023/07/04 06:53:28;;;;;;;29.55;7.43;;;;;;;;;;5037944;28;20021;-73
2023/07/04 06:55:54;;;;;;;19.98;6.72;;;;;;;;;;5036153;28;20022;-73
2023/07/04 06:58:20;;;;;;;29.88;9.57;;;;;;;;;;5040728;28;20483;-73
2023/07/04 07:00:46;;;;;;;26.90;7.10;;;;;;;;;;5041727;28;20018;-73
2023/07/04 07:03:12;;;;;;;27.05;6.95;;;;;;;;;;5046083;28;20036;-73
2023/07/04 07:05:39;;;;;;;29.25;8.52;;;;;;;;;;5051993;28;20033;-73
2023/07/04 07:08:05;;;;;;;22.30;7.45;;;;;;;;;;5050507;28;20116;-73
2023/07/04 07:10:31;;;;;;;16.95;6.10;;;;;;;;;;5051738;28;20489;-73
2023/07/04 07:12:58;;;;;;;27.75;8.43;;;;;;;;;;5051944;28;20028;-75
2023/07/04 07:15:24;;;;;;;29.05;7.95;;;;;;;;;;5052025;28;20059;-75
2023/07/04 07:17:50;;;;;;;21.67;7.05;;;;;;;;;;5051521;28;20059;-75
2023/07/04 07:20:16;;;;;;;21.35;6.50;;;;;;;;;;5050551;28;20025;-74
2023/07/04 07:22:42;;;;;;;36.72;8.68;;;;;;;;;;5051204;28;20082;-74
2023/07/04 07:25:08;;;;;;;24.50;7.05;;;;;;;;;;5066079;28;20306;-74
2023/07/04 07:27:34;;;;;;;19.45;5.80;;;;;;;;;;5070267;28;20119;-76
2023/07/04 07:30:00;;;;;;;25.95;7.85;;;;;;;;;;5070635;28;20107;-74
2023/07/04 07:32:26;;;;;;;20.38;5.25;;;;;;;;;;5058336;28;20028;-75
2023/07/04 07:34:52;;;;;;;23.25;6.78;;;;;;;;;;5070927;28;20078;-76
2023/07/04 07:37:18;;;;;;;19.70;6.00;;;;;;;;;;5070877;28;20024;-75
2023/07/04 07:39:44;;;;;;;19.13;5.90;;;;;;;;;;5071637;28;20040;-76
2023/07/04 07:42:12;;;;;;;20.27;6.15;;;;;;;;;;5071747;28;20017;-73
2023/07/04 07:44:38;;;;;;;18.35;6.20;;;;;;;;;;5071353;28;20112;-74
2023/07/04 07:47:04;;;;;;;20.70;6.25;;;;;;;;;;5056800;28;20178;-74
2023/07/04 07:49:30;;;;;;;21.95;5.65;;;;;;;;;;5063463;28;20040;-75
2023/07/04 07:51:57;;;;;;;13.25;4.47;;;;;;;;;;5070986;28;20062;-75
2023/07/04 07:54:24;;;;;;;24.55;6.00;;;;;;;;;;5071369;28;20024;-73
2023/07/04 07:56:50;;;;;;;21.73;5.65;;;;;;;;;;5070836;28;20048;-75
2023/07/04 07:59:16;;;;;;;19.92;4.05;;;;;;;;;;5071520;28;20105;-76
2023/07/04 08:01:42;;;;;;;16.40;4.05;;;;;;;;;;5071033;28;20028;-74
2023/07/04 08:04:08;;;;;;;15.93;4.53;;;;;;;;;;5070876;28;20029;-75
2023/07/04 08:06:34;;;;;;;12.52;3.58;;;;;;;;;;5071207;28;20092;-75
2023/07/04 08:09:01;;;;;;;21.67;4.72;;;;;;;;;;5071035;28;20541;-75
2023/07/04 08:11:28;;;;;;;18.20;4.60;;;;;;;;;;5070886;28;20501;-76
2023/07/04 08:13:55;;;;;;;15.13;3.78;;;;;;;;;;5071010;28;20017;-76
2023/07/04 08:16:25;;;;;;;20.42;4.40;;;;;;;;;;5071146;28;20023;-76
2023/07/04 08:18:51;;;;;;;18.42;3.63;;;;;;;;;;5070627;28;20033;-78
2023/07/04 08:21:17;;;;;;;14.18;4.00;;;;;;;;;;5070563;28;20025;-76
2023/07/04 08:23:44;;;;;;;14.88;4.32;;;;;;;;;;5070818;28;20545;-75
2023/07/04 08:26:21;;;;;;;15.57;3.65;;;;;;;;;;5070336;28;20052;-75
2023/07/04 08:28:48;;;;;;;14.93;4.00;;;;;;;;;;5069222;28;20490;-75
2023/07/04 08:31:17;;;;;;;17.17;3.90;;;;;;;;;;5070725;28;20479;-75
2023/07/04 08:33:44;;;;;;;13.00;3.05;;;;;;;;;;5070303;28;20047;-74
2023/07/04 08:36:11;;;;;;;9.88;2.63;;;;;;;;;;5070657;28;20020;-76
2023/07/04 08:38:37;;;;;;;11.55;3.80;;;;;;;;;;5068513;28;20036;-75
2023/07/04 08:41:04;;;;;;;10.57;3.42;;;;;;;;;;5070169;28;20028;-77
2023/07/04 08:43:37;;;;;;;16.02;2.90;;;;;;;;;;5054611;28;20032;-76
2023/07/04 08:46:05;;;;;;;12.98;3.13;;;;;;;;;;5070042;28;20486;-77
2023/07/04 08:48:31;;;;;;;15.05;3.55;;;;;;;;;;5070574;28;20032;-75
2023/07/04 08:51:02;;;;;;;13.00;2.83;;;;;;;;;;5070070;28;20024;-75
2023/07/04 08:53:30;;;;;;;14.25;3.45;;;;;;;;;;5066810;28;20025;-75
2023/07/04 08:55:56;;;;;;;12.63;2.80;;;;;;;;;;5069564;28;20056;-73
2023/07/04 08:58:26;;;;;;;16.65;3.67;;;;;;;;;;5069028;28;20037;-74
2023/07/04 09:00:52;;;;;;;;;;;;;;;;;;5070771;28;20056;-75
2023/07/04 09:03:27;;;;;;;17.00;3.97;;;;;;;;;;5070172;28;19962;-75
2023/07/04 09:06:11;;;;;;;17.05;3.92;;;;;;;;;;5069831;28;20467;-75
2023/07/04 09:08:43;;;;;;;10.20;2.88;;;;;;;;;;5069660;28;20032;-77
2023/07/04 09:11:11;;;;;;;14.60;4.20;;;;;;;;;;5068108;28;20491;-75
2023/07/04 09:13:44;;;;;;;9.82;2.95;;;;;;;;;;5068826;28;20031;-78
2023/07/04 09:16:11;;;;;;;9.13;2.63;;;;;;;;;;5069446;28;20391;-76
2023/07/04 09:19:01;;;;;;;14.23;3.22;;;;;;;;;;5069783;28;20062;-74
2023/07/04 09:21:28;;;;;;;7.57;2.78;;;;;;;;;;5053929;28;20577;-75
2023/07/04 09:23:55;;;;;;;14.50;3.42;;;;;;;;;;5047466;28;20049;-77
2023/07/04 09:26:26;;;;;;;16.92;3.63;;;;;;;;;;5065470;28;20036;-75
2023/07/04 09:28:54;;;;;;;18.00;3.70;;;;;;;;;;5050785;28;20079;-77
2023/07/04 09:31:22;;;;;;;11.50;3.10;;;;;;;;;;5069539;28;20029;-74
2023/07/04 09:33:49;;;;;;;13.32;3.65;;;;;;;;;;5069023;28;20108;-76
2023/07/04 09:36:17;;;;;;;12.20;2.15;;;;;;;;;;5069135;28;20027;-75
2023/07/04 09:38:56;;;;;;;10.30;2.22;;;;;;;;;;5068993;28;20044;-76
2023/07/04 09:41:27;;;;;;;10.52;3.05;;;;;;;;;;5068435;28;20037;-76
2023/07/04 09:43:53;;;;;;;11.20;2.70;;;;;;;;;;5068627;28;20040;-75
2023/07/04 09:46:30;;;;;;;9.90;3.42;;;;;;;;;;5070008;28;20029;-77
2023/07/04 09:49:16;;;;;;;11.73;2.63;;;;;;;;;;5068686;28;20104;-75
2023/07/04 09:51:42;;;;;;;11.77;3.38;;;;;;;;;;5068995;28;20390;-75
2023/07/04 09:54:11;;;;;;;11.57;2.33;;;;;;;;;;5068779;28;20021;-76
2023/07/04 09:56:37;;;;;;;10.25;2.85;;;;;;;;;;5068409;28;20085;-76
2023/07/04 09:59:10;;;;;;;9.38;2.65;;;;;;;;;;5066721;28;20047;-77
2023/07/04 10:01:38;;;;;;;13.73;3.03;;;;;;;;;;5067673;28;20043;-76
2023/07/04 10:04:06;;;;;;;9.88;2.35;;;;;;;;;;5068405;28;20028;-75
2023/07/04 10:06:33;;;;;;;13.98;3.03;;;;;;;;;;5067828;28;20074;-76
2023/07/04 10:09:01;;;;;;;10.52;2.30;;;;;;;;;;5068919;28;20052;-76
2023/07/04 10:11:32;;;;;;;11.80;2.90;;;;;;;;;;5066860;28;20021;-75
2023/07/04 10:14:00;;;;;;;7.53;2.00;;;;;;;;;;5066017;28;20386;-76
2023/07/04 10:16:26;;;;;;;9.02;2.13;;;;;;;;;;5067766;28;20024;-78
2023/07/04 10:19:04;;;;;;;9.30;2.15;;;;;;;;;;5064860;28;20139;-75
2023/07/04 10:21:30;;;;;;;12.38;2.65;;;;;;;;;;5066763;28;20036;-79
2023/07/04 10:23:58;;;;;;;8.73;2.13;;;;;;;;;;5068237;28;20044;-78
2023/07/04 10:26:25;;;;;;;9.40;2.00;;;;;;;;;;5050958;28;20522;-76
2023/07/04 10:28:52;;;;;;;9.63;1.95;;;;;;;;;;5067104;28;20040;-77
2023/07/04 10:31:21;;;;;;;9.65;2.85;;;;;;;;;;5068409;28;20032;-77
2023/07/04 10:33:57;;;;;;;8.40;2.08;;;;;;;;;;5068542;28;20375;-76
2023/07/04 10:36:28;;;;;;;14.50;2.95;;;;;;;;;;5071351;28;20063;-74
2023/07/04 10:38:56;;;;;;;9.38;2.10;;;;;;;;;;5071636;28;20474;-76
2023/07/04 10:41:51;;;;;;;9.40;2.58;;;;;;;;;;5072500;28;20036;-77
2023/07/04 10:44:22;;;;;;;9.95;2.40;;;;;;;;;;5064361;28;20048;-75
2023/07/04 10:46:59;;;;;;;14.70;3.58;;;;;;;;;;5070111;28;20478;-77
2023/07/04 10:49:36;;;;;;;12.95;3.13;;;;;;;;;;5070379;28;20559;-75
2023/07/04 10:52:22;;;;;;;11.18;2.65;;;;;;;;;;5067677;28;20021;-76
2023/07/04 10:54:48;;;;;;;7.80;2.10;;;;;;;;;;5072250;28;20039;-76
2023/07/04 10:57:22;;;;;;;7.80;2.17;;;;;;;;;;5071233;28;20032;-75
2023/07/04 10:59:49;;;;;;;11.15;3.20;;;;;;;;;;5070909;28;20048;-77
2023/07/04 11:02:30;;;;;;;8.85;2.75;;;;;;;;;;5072530;28;20538;-77
2023/07/04 11:07:33;;;;;;;10.05;2.50;;;;;;;;;;5078497;22;20395;-76
2023/07/04 11:09:59;;;;;;;;;;;;;;;;;;5050760;28;20025;-76
2023/07/04 11:12:27;;;;;;;9.50;2.17;;;;;;;;;;5156461;22;20497;-77
2023/07/04 11:14:59;;;;;;;8.23;2.08;;;;;;;;;;5046913;28;20442;-78
2023/07/04 11:17:25;;;;;;;8.48;2.60;;;;;;;;;;5036881;22;20057;-76
